Locust, New Jersey
Current Conditions -  °F | °C
As of 7:35 AM on Thursday 18 Dec 2014 (Local Time) from KBLM Reporting Station
Clear Clear  
Wind Chill: -3°   Ceiling: Unl
Heat Index:   Visibility: 10mi
Dew Point: -8°   Wind: 10mph
Humidity: 52%   Direction: 270°W
Pressure: 29.99"   Gusts: NA
Location:  40.3613°N, 74.0061°W
Report Text: KBLM 181235Z AUTO 27009KT 10SM CLR 01/M08 A2999 RMK AO1
Loading
Personal Weather Stations






























Interactive Weather Map New forecast layout! Learn more

10-Day Weather Forecast

Advertisements
Track Severe Weather on mobile